createdAt,value
2023-05-04T00:00:49.902Z,13.20
2023-05-04T00:03:18.221Z,13.20
2023-05-04T00:05:47.706Z,13.10
2023-05-04T00:08:15.805Z,13.10
2023-05-04T00:10:46.200Z,13.10
2023-05-04T00:13:14.449Z,13.00
2023-05-04T00:15:42.591Z,13.00
2023-05-04T00:18:10.605Z,13.00
2023-05-04T00:20:39.182Z,12.90
2023-05-04T00:23:14.658Z,12.90
2023-05-04T00:25:42.767Z,12.80
2023-05-04T00:28:10.774Z,12.80
2023-05-04T00:30:38.853Z,12.80
2023-05-04T00:33:06.929Z,12.70
2023-05-04T00:35:35.273Z,12.70
2023-05-04T00:38:04.821Z,12.70
2023-05-04T00:40:35.241Z,12.60
2023-05-04T00:43:03.731Z,12.60
2023-05-04T00:45:32.536Z,12.60
2023-05-04T00:48:00.897Z,12.60
2023-05-04T00:50:31.940Z,12.50
2023-05-04T00:53:02.628Z,12.50
2023-05-04T00:55:30.772Z,12.40
2023-05-04T00:58:00.512Z,12.40
2023-05-04T01:00:28.630Z,12.40
2023-05-04T01:02:57.616Z,12.30
2023-05-04T01:05:28.328Z,12.30
2023-05-04T01:08:00.240Z,12.30
2023-05-04T01:10:35.705Z,12.20
2023-05-04T01:13:08.535Z,12.20
2023-05-04T01:15:36.791Z,12.20
2023-05-04T01:18:05.773Z,12.20
2023-05-04T01:20:34.119Z,12.10
2023-05-04T01:23:05.846Z,12.10
2023-05-04T01:25:40.316Z,12.10
2023-05-04T01:28:11.396Z,12.00
2023-05-04T01:30:44.563Z,12.00
2023-05-04T01:33:13.373Z,12.00
2023-05-04T01:35:41.470Z,12.00
2023-05-04T01:38:11.138Z,12.00
2023-05-04T01:40:39.080Z,12.00
2023-05-04T01:43:07.090Z,11.90
2023-05-04T01:45:35.173Z,11.90
2023-05-04T01:48:06.905Z,11.90
2023-05-04T01:50:35.199Z,11.90
2023-05-04T01:53:05.523Z,11.80
2023-05-04T01:55:34.953Z,11.80
2023-05-04T01:58:04.988Z,11.80
2023-05-04T02:00:33.529Z,11.80
2023-05-04T02:03:02.194Z,11.80
2023-05-04T02:05:30.349Z,11.70
2023-05-04T02:07:58.495Z,11.70
2023-05-04T02:10:26.719Z,11.70
2023-05-04T02:12:56.313Z,11.70
2023-05-04T02:15:24.549Z,11.70
2023-05-04T02:17:52.575Z,11.60
2023-05-04T02:20:20.786Z,11.60
2023-05-04T02:22:48.851Z,11.60
2023-05-04T02:25:19.432Z,11.50
2023-05-04T02:27:47.638Z,11.50
2023-05-04T02:30:19.792Z,11.50
2023-05-04T02:32:47.839Z,11.50
2023-05-04T02:35:15.981Z,11.50
2023-05-04T02:37:44.113Z,11.40
2023-05-04T02:40:13.649Z,11.40
2023-05-04T02:42:41.585Z,11.40
2023-05-04T02:45:10.448Z,11.30
2023-05-04T02:47:39.832Z,11.30
2023-05-04T02:50:11.138Z,11.30
2023-05-04T02:52:40.449Z,11.30
2023-05-04T02:55:09.321Z,11.20
2023-05-04T02:57:37.447Z,11.20
2023-05-04T03:00:09.027Z,11.20
2023-05-04T03:02:40.147Z,11.20
2023-05-04T03:05:08.327Z,11.10
2023-05-04T03:07:36.353Z,11.10
2023-05-04T03:10:07.213Z,11.10
2023-05-04T03:12:35.626Z,11.00
2023-05-04T03:15:05.450Z,11.00
2023-05-04T03:17:33.613Z,11.00
2023-05-04T03:20:03.710Z,11.00
2023-05-04T03:22:32.071Z,11.00
2023-05-04T03:25:01.972Z,10.90
2023-05-04T03:27:30.092Z,10.90
2023-05-04T03:29:58.277Z,10.90
2023-05-04T03:32:26.508Z,10.90
2023-05-04T03:34:54.626Z,10.90
2023-05-04T03:37:24.942Z,10.80
2023-05-04T03:39:53.064Z,10.80
2023-05-04T03:42:21.320Z,10.80
2023-05-04T03:44:49.813Z,10.80
2023-05-04T03:47:17.836Z,10.80
2023-05-04T03:49:45.883Z,10.70
2023-05-04T03:52:13.882Z,10.70
2023-05-04T03:54:43.364Z,10.70
2023-05-04T03:57:11.417Z,10.70
2023-05-04T03:59:39.846Z,10.70
2023-05-04T04:02:08.041Z,10.60
2023-05-04T04:04:36.233Z,10.60
2023-05-04T04:07:07.206Z,10.60
2023-05-04T04:09:35.281Z,10.60
2023-05-04T04:12:05.129Z,10.60
2023-05-04T04:14:33.343Z,10.60
2023-05-04T04:17:01.350Z,10.60
2023-05-04T04:19:29.368Z,10.60
2023-05-04T04:21:59.009Z,10.50
2023-05-04T04:24:27.109Z,10.50
2023-05-04T04:26:55.154Z,10.50
2023-05-04T04:29:24.910Z,10.50
2023-05-04T04:31:52.999Z,10.50
2023-05-04T04:34:21.066Z,10.50
2023-05-04T04:36:51.224Z,10.50
2023-05-04T04:39:19.311Z,10.50
2023-05-04T04:41:47.585Z,10.50
2023-05-04T04:44:15.748Z,10.50
2023-05-04T04:46:45.833Z,10.40
2023-05-04T04:49:14.249Z,10.40
2023-05-04T04:51:42.221Z,10.40
2023-05-04T04:54:10.299Z,10.40
2023-05-04T04:56:41.521Z,10.40
2023-05-04T04:59:10.485Z,10.50
2023-05-04T05:01:38.830Z,10.50
2023-05-04T05:04:08.256Z,10.50
2023-05-04T05:06:36.706Z,10.50
2023-05-04T05:09:05.442Z,10.50
2023-05-04T05:11:34.070Z,10.50
2023-05-04T05:14:02.089Z,10.50
2023-05-04T05:16:30.216Z,10.50
2023-05-04T05:18:58.789Z,10.50
2023-05-04T05:21:59.555Z,10.50
2023-05-04T05:24:27.849Z,10.50
2023-05-04T05:26:58.017Z,10.50
2023-05-04T05:29:26.754Z,10.50
2023-05-04T05:31:54.874Z,10.50
2023-05-04T05:34:22.994Z,10.50
2023-05-04T05:36:52.415Z,10.50
2023-05-04T05:39:20.493Z,10.50
2023-05-04T05:41:48.655Z,10.50
2023-05-04T05:44:16.703Z,10.50
2023-05-04T05:46:44.773Z,10.50
2023-05-04T05:49:14.354Z,10.50
2023-05-04T05:51:42.826Z,10.50
2023-05-04T05:54:12.456Z,10.50
2023-05-04T05:56:40.446Z,10.60
2023-05-04T05:59:08.452Z,10.60
2023-05-04T06:01:36.732Z,10.50
2023-05-04T06:04:05.015Z,10.60
2023-05-04T06:06:33.378Z,10.60
2023-05-04T06:09:01.442Z,10.60
2023-05-04T06:11:31.921Z,10.60
2023-05-04T06:14:00.168Z,10.60
2023-05-04T06:16:33.046Z,10.60
2023-05-04T06:19:01.110Z,10.60
2023-05-04T06:21:29.200Z,10.60
2023-05-04T06:23:57.336Z,10.70
2023-05-04T06:26:25.526Z,10.70
2023-05-04T06:28:55.032Z,10.70
2023-05-04T06:31:24.247Z,10.80
2023-05-04T06:33:52.427Z,10.80
2023-05-04T06:36:20.456Z,10.80
2023-05-04T06:38:48.450Z,10.80
2023-05-04T06:41:16.812Z,10.90
2023-05-04T06:43:44.958Z,11.00
2023-05-04T06:46:14.497Z,11.00
2023-05-04T06:48:42.627Z,11.10
2023-05-04T06:51:10.685Z,11.10
2023-05-04T06:53:38.984Z,11.10
2023-05-04T06:56:08.193Z,11.20
2023-05-04T06:58:36.696Z,11.30
2023-05-04T07:01:07.463Z,11.30
2023-05-04T07:03:37.057Z,11.40
2023-05-04T07:06:08.866Z,11.40
2023-05-04T07:08:36.937Z,11.40
2023-05-04T07:11:05.984Z,11.50
2023-05-04T07:13:33.962Z,11.60
2023-05-04T07:16:08.012Z,11.60
2023-05-04T07:18:38.928Z,11.70
2023-05-04T07:23:44.744Z,11.80
2023-05-04T07:26:12.763Z,11.90
2023-05-04T07:28:43.700Z,11.90
2023-05-04T07:31:13.148Z,12.00
2023-05-04T07:33:44.497Z,12.00
2023-05-04T07:36:12.575Z,12.20
2023-05-04T07:38:40.630Z,12.20
2023-05-04T07:41:08.624Z,12.30
2023-05-04T07:43:36.733Z,12.40
2023-05-04T07:46:05.013Z,12.40
2023-05-04T07:48:35.393Z,12.50
2023-05-04T07:51:05.005Z,12.60
2023-05-04T07:53:33.220Z,12.70
2023-05-04T07:56:17.248Z,12.80
2023-05-04T07:58:46.792Z,12.90
2023-05-04T08:01:14.867Z,13.00
2023-05-04T08:03:42.899Z,13.00
2023-05-04T08:06:13.057Z,13.10
2023-05-04T08:08:41.233Z,13.20
2023-05-04T08:11:19.955Z,13.30
2023-05-04T08:13:49.845Z,13.40
2023-05-04T08:16:20.814Z,13.40
2023-05-04T08:18:48.921Z,13.50
2023-05-04T08:21:18.363Z,13.50
2023-05-04T08:23:46.308Z,13.60
2023-05-04T08:26:14.462Z,13.80
2023-05-04T08:28:42.888Z,13.80
2023-05-04T08:31:10.880Z,13.90
2023-05-04T08:33:39.544Z,14.00
2023-05-04T08:36:09.312Z,14.00
2023-05-04T08:38:41.758Z,14.10
2023-05-04T08:41:09.687Z,14.20
2023-05-04T08:43:38.302Z,14.40
2023-05-04T08:46:07.758Z,14.40
2023-05-04T08:48:36.986Z,14.50
2023-05-04T08:51:07.914Z,14.60
2023-05-04T08:53:38.950Z,14.70
2023-05-04T08:56:09.435Z,14.80
2023-05-04T08:58:38.473Z,14.90
2023-05-04T09:01:08.657Z,15.00
2023-05-04T09:03:37.382Z,15.10
2023-05-04T09:06:09.546Z,15.20
2023-05-04T09:08:37.696Z,15.30
2023-05-04T09:11:10.479Z,15.30
2023-05-04T09:13:38.771Z,15.40
2023-05-04T09:16:07.799Z,15.60
2023-05-04T09:18:40.055Z,15.70
2023-05-04T09:21:08.775Z,15.80
2023-05-04T09:23:47.335Z,15.80
2023-05-04T09:26:27.147Z,15.90
2023-05-04T09:28:55.315Z,16.00
2023-05-04T09:31:24.239Z,16.10
2023-05-04T09:33:53.653Z,16.10
2023-05-04T09:36:25.099Z,16.30
2023-05-04T09:38:53.083Z,16.30
2023-05-04T09:41:33.041Z,16.40
2023-05-04T09:44:01.172Z,16.50
2023-05-04T09:46:32.065Z,16.50
2023-05-04T09:49:00.333Z,16.50
2023-05-04T09:51:32.766Z,16.60
2023-05-04T09:54:05.642Z,16.70
2023-05-04T09:56:47.537Z,16.70
2023-05-04T09:59:16.826Z,16.90
2023-05-04T10:01:45.540Z,17.00
2023-05-04T10:04:14.086Z,17.10
2023-05-04T10:06:44.836Z,17.20
2023-05-04T10:09:14.207Z,17.20
2023-05-04T10:11:44.093Z,17.30
2023-05-04T10:14:12.665Z,17.40
2023-05-04T10:16:51.643Z,17.40
2023-05-04T10:19:34.531Z,17.50
2023-05-04T10:22:16.990Z,17.50
2023-05-04T10:25:09.066Z,17.70
2023-05-04T10:27:58.335Z,17.70
2023-05-04T10:30:26.437Z,17.80
2023-05-04T10:32:58.865Z,17.90
2023-05-04T10:35:27.654Z,18.00
2023-05-04T10:37:57.048Z,18.00
2023-05-04T10:40:36.711Z,18.10
2023-05-04T10:43:11.141Z,18.20
2023-05-04T10:45:39.744Z,18.30
2023-05-04T10:48:08.910Z,18.30
2023-05-04T10:50:44.581Z,18.50
2023-05-04T10:53:13.201Z,18.60
2023-05-04T10:55:42.981Z,18.70
2023-05-04T10:58:16.589Z,18.70
2023-05-04T11:00:46.197Z,18.80
2023-05-04T11:03:15.324Z,18.90
2023-05-04T11:05:44.620Z,18.90
2023-05-04T11:08:17.462Z,19.00
2023-05-04T11:10:46.784Z,19.10
2023-05-04T11:13:17.056Z,19.20
2023-05-04T11:15:46.448Z,19.30
2023-05-04T11:18:14.621Z,19.30
2023-05-04T11:20:43.683Z,19.40
2023-05-04T11:23:17.727Z,19.60
2023-05-04T11:25:45.983Z,19.70
2023-05-04T11:28:16.074Z,19.70
2023-05-04T11:30:46.122Z,19.80
2023-05-04T11:33:15.752Z,19.90
2023-05-04T11:35:45.503Z,20.00
2023-05-04T11:38:20.048Z,20.10
2023-05-04T11:40:49.778Z,20.20
2023-05-04T11:43:20.208Z,20.20
2023-05-04T11:45:49.766Z,20.40
2023-05-04T11:48:18.889Z,20.60
2023-05-04T11:50:49.109Z,20.70
2023-05-04T11:53:21.534Z,20.90
2023-05-04T11:55:49.896Z,20.90
2023-05-04T11:58:26.110Z,20.90
2023-05-04T12:00:57.530Z,20.90
2023-05-04T12:03:32.606Z,21.00
2023-05-04T12:06:08.152Z,21.00
2023-05-04T12:08:42.313Z,21.10
2023-05-04T12:11:21.802Z,21.30
2023-05-04T12:14:07.026Z,21.50
2023-05-04T12:16:35.435Z,21.60
2023-05-04T12:19:06.080Z,21.60
2023-05-04T12:21:34.511Z,21.70
2023-05-04T12:24:05.414Z,21.90
2023-05-04T12:26:33.529Z,22.00
2023-05-04T12:29:02.892Z,22.00
2023-05-04T12:31:30.914Z,22.00
2023-05-04T12:33:58.931Z,22.10
2023-05-04T12:36:27.082Z,22.30
2023-05-04T12:38:55.131Z,22.30
2023-05-04T12:41:23.323Z,22.30
2023-05-04T12:43:51.428Z,22.40
2023-05-04T12:46:22.624Z,22.50
2023-05-04T12:48:51.080Z,22.60
2023-05-04T12:51:19.184Z,22.70
2023-05-04T12:53:47.238Z,22.80
2023-05-04T12:56:15.334Z,22.90
2023-05-04T12:58:43.219Z,23.00
2023-05-04T13:01:11.565Z,23.20
2023-05-04T13:03:44.222Z,23.10
2023-05-04T13:06:12.745Z,23.20
2023-05-04T13:08:40.823Z,23.30
2023-05-04T13:11:08.799Z,23.40
2023-05-04T13:13:37.304Z,23.50
2023-05-04T13:16:08.595Z,23.60
2023-05-04T13:18:36.797Z,23.50
2023-05-04T13:21:08.754Z,23.60
2023-05-04T13:23:37.452Z,23.70
2023-05-04T13:26:08.713Z,23.70
2023-05-04T13:28:39.074Z,23.80
2023-05-04T13:31:08.688Z,23.80
2023-05-04T13:33:38.673Z,23.90
2023-05-04T13:36:08.657Z,23.90
2023-05-04T13:38:36.899Z,23.90
2023-05-04T13:41:04.994Z,23.80
2023-05-04T13:43:33.152Z,23.80
2023-05-04T13:46:06.268Z,23.80
2023-05-04T13:48:34.997Z,23.90
2023-05-04T13:51:06.999Z,24.00
2023-05-04T13:53:36.574Z,24.10
2023-05-04T13:56:06.919Z,24.30
2023-05-04T13:58:34.992Z,24.30
2023-05-04T14:01:05.978Z,24.30
2023-05-04T14:03:34.222Z,24.30
2023-05-04T14:06:07.183Z,24.40
2023-05-04T14:08:36.667Z,24.50
2023-05-04T14:11:05.047Z,24.50
2023-05-04T14:13:35.275Z,24.60
2023-05-04T14:16:05.652Z,24.70
2023-05-04T14:18:35.417Z,24.80
2023-05-04T14:21:03.967Z,24.90
2023-05-04T14:23:34.019Z,24.90
2023-05-04T14:26:05.087Z,25.00
2023-05-04T14:28:33.422Z,25.00
2023-05-04T14:31:08.636Z,25.10
2023-05-04T14:33:36.993Z,25.20
2023-05-04T14:36:09.122Z,25.10
2023-05-04T14:38:37.341Z,25.00
2023-05-04T14:41:08.520Z,25.10
2023-05-04T14:43:36.876Z,25.10
2023-05-04T14:46:05.579Z,25.20
2023-05-04T14:48:33.782Z,25.30
2023-05-04T14:51:02.247Z,25.30
2023-05-04T14:53:34.253Z,25.30
2023-05-04T14:56:05.063Z,25.40
2023-05-04T14:58:34.580Z,25.30
2023-05-04T15:01:02.981Z,25.20
2023-05-04T15:03:31.412Z,25.20
2023-05-04T15:05:59.492Z,25.20
2023-05-04T15:08:27.597Z,25.20
2023-05-04T15:10:59.009Z,25.20
2023-05-04T15:13:27.232Z,25.10
2023-05-04T15:15:56.858Z,25.20
2023-05-04T15:18:26.186Z,25.20
2023-05-04T15:20:54.148Z,25.20
2023-05-04T15:23:23.004Z,25.20
2023-05-04T15:25:51.345Z,25.20
2023-05-04T15:28:22.735Z,25.20
2023-05-04T15:30:50.841Z,25.20
2023-05-04T15:33:20.423Z,25.10
2023-05-04T15:35:48.492Z,25.10
2023-05-04T15:38:16.509Z,25.10
2023-05-04T15:40:44.591Z,25.20
2023-05-04T15:43:12.687Z,25.20
2023-05-04T15:45:40.568Z,25.20
2023-05-04T15:48:08.698Z,25.20
2023-05-04T15:50:38.215Z,25.20
2023-05-04T15:53:12.641Z,25.10
2023-05-04T15:55:41.319Z,25.10
2023-05-04T15:58:09.452Z,25.20
2023-05-04T16:00:37.664Z,25.10
2023-05-04T16:03:07.111Z,25.20
2023-05-04T16:05:35.328Z,25.20
2023-05-04T16:08:05.025Z,25.20
2023-05-04T16:10:33.326Z,25.20
2023-05-04T16:13:04.074Z,25.20
2023-05-04T16:15:32.642Z,25.30
2023-05-04T16:18:00.964Z,25.30
2023-05-04T16:20:30.284Z,25.40
2023-05-04T16:22:58.407Z,25.30
2023-05-04T16:25:28.113Z,25.40
2023-05-04T16:27:56.337Z,25.40
2023-05-04T16:30:30.018Z,25.40
2023-05-04T16:32:58.005Z,25.30
2023-05-04T16:35:26.454Z,25.20
2023-05-04T16:37:55.318Z,25.20
2023-05-04T16:40:24.152Z,25.10
2023-05-04T16:42:53.691Z,25.10
2023-05-04T16:45:24.793Z,25.10
2023-05-04T16:47:53.448Z,25.10
2023-05-04T16:50:21.817Z,25.10
2023-05-04T16:52:49.848Z,25.10
2023-05-04T16:55:17.907Z,25.10
2023-05-04T16:57:46.225Z,25.00
2023-05-04T17:00:17.000Z,24.90
2023-05-04T17:02:45.518Z,24.90
2023-05-04T17:05:13.613Z,24.90
2023-05-04T17:07:43.308Z,24.90
2023-05-04T17:10:12.660Z,24.90
2023-05-04T17:12:40.799Z,24.90
2023-05-04T17:15:10.531Z,24.80
2023-05-04T17:17:40.344Z,24.80
2023-05-04T17:20:14.709Z,24.70
2023-05-04T17:22:43.237Z,24.70
2023-05-04T17:25:12.216Z,24.60
2023-05-04T17:27:41.118Z,24.60
2023-05-04T17:30:10.609Z,24.50
2023-05-04T17:32:40.504Z,24.50
2023-05-04T17:35:20.940Z,24.40
2023-05-04T17:37:51.951Z,24.40
2023-05-04T17:40:20.357Z,24.40
2023-05-04T17:42:48.440Z,24.30
2023-05-04T17:45:18.851Z,24.30
2023-05-04T17:47:51.628Z,24.20
2023-05-04T17:50:20.385Z,24.10
2023-05-04T17:52:55.166Z,24.00
2023-05-04T17:55:25.037Z,24.00
2023-05-04T17:57:56.059Z,23.80
2023-05-04T18:00:25.043Z,23.80
2023-05-04T18:02:54.630Z,23.70
2023-05-04T18:05:22.697Z,23.60
2023-05-04T18:07:51.032Z,23.50
2023-05-04T18:10:19.307Z,23.40
2023-05-04T18:12:48.114Z,23.30
2023-05-04T18:15:17.213Z,23.30
2023-05-04T18:17:48.665Z,23.20
2023-05-04T18:20:19.410Z,23.10
2023-05-04T18:22:47.641Z,23.10
2023-05-04T18:25:16.155Z,23.00
2023-05-04T18:27:45.241Z,22.90
2023-05-04T18:30:13.631Z,22.80
2023-05-04T18:32:41.658Z,22.70
2023-05-04T18:35:10.467Z,22.70
2023-05-04T18:37:39.971Z,22.60
2023-05-04T18:40:11.127Z,22.50
2023-05-04T18:42:39.271Z,22.40
2023-05-04T18:45:08.514Z,22.40
2023-05-04T18:47:36.824Z,22.30
2023-05-04T18:50:09.098Z,22.30
2023-05-04T18:52:37.445Z,22.20
2023-05-04T18:55:07.978Z,22.20
2023-05-04T18:57:36.073Z,22.10
2023-05-04T19:00:07.269Z,22.00
2023-05-04T19:02:35.779Z,22.00
2023-05-04T19:05:03.881Z,21.90
2023-05-04T19:07:36.781Z,21.90
2023-05-04T19:10:09.085Z,21.80
2023-05-04T19:12:37.578Z,21.70
2023-05-04T19:15:08.820Z,21.70
2023-05-04T19:17:37.107Z,21.60
2023-05-04T19:20:09.092Z,21.50
2023-05-04T19:22:37.297Z,21.50
2023-05-04T19:25:07.901Z,21.40
2023-05-04T19:27:35.940Z,21.40
2023-05-04T19:30:04.608Z,21.30
2023-05-04T19:32:32.972Z,21.30
2023-05-04T19:35:01.280Z,21.20
2023-05-04T19:37:29.355Z,21.20
2023-05-04T19:39:57.907Z,21.10
2023-05-04T19:42:28.287Z,21.10
2023-05-04T19:44:56.258Z,21.00
2023-05-04T19:47:24.343Z,21.00
2023-05-04T19:49:52.683Z,20.90
2023-05-04T19:52:20.609Z,20.80
2023-05-04T19:54:53.558Z,20.80
2023-05-04T19:57:21.656Z,20.70
2023-05-04T19:59:51.076Z,20.60
2023-05-04T20:02:19.229Z,20.60
2023-05-04T20:04:47.290Z,20.50
2023-05-04T20:07:15.278Z,20.50
2023-05-04T20:09:43.222Z,20.40
2023-05-04T20:12:11.911Z,20.40
2023-05-04T20:14:41.063Z,20.40
2023-05-04T20:17:10.665Z,20.30
2023-05-04T20:19:42.917Z,20.20
2023-05-04T20:22:11.141Z,20.20
2023-05-04T20:24:39.154Z,20.10
2023-05-04T20:27:08.459Z,20.10
2023-05-04T20:29:36.901Z,20.10
2023-05-04T20:32:05.617Z,20.00
2023-05-04T20:34:36.429Z,19.90
2023-05-04T20:37:06.705Z,20.00
2023-05-04T20:39:34.782Z,19.90
2023-05-04T20:42:14.463Z,19.80
2023-05-04T20:44:42.410Z,19.80
2023-05-04T20:47:10.368Z,19.80
2023-05-04T20:49:41.736Z,19.70
2023-05-04T20:52:11.418Z,19.70
2023-05-04T20:54:39.532Z,19.70
2023-05-04T20:57:07.732Z,19.60
2023-05-04T20:59:35.768Z,19.60
2023-05-04T21:02:03.757Z,19.50
2023-05-04T21:04:31.810Z,19.50
2023-05-04T21:07:01.326Z,19.40
2023-05-04T21:09:29.297Z,19.30
2023-05-04T21:11:58.359Z,19.30
2023-05-04T21:14:26.323Z,19.30
2023-05-04T21:16:55.008Z,19.30
2023-05-04T21:19:23.031Z,19.20
2023-05-04T21:21:51.325Z,19.20
2023-05-04T21:24:20.697Z,19.20
2023-05-04T21:26:49.668Z,19.10
2023-05-04T21:29:18.017Z,19.00
2023-05-04T21:31:46.877Z,19.00
2023-05-04T21:34:15.278Z,18.90
2023-05-04T21:36:44.580Z,18.90
2023-05-04T21:39:12.650Z,18.90
2023-05-04T21:41:42.137Z,18.80
2023-05-04T21:44:10.101Z,18.80
2023-05-04T21:46:38.174Z,18.70
2023-05-04T21:49:09.015Z,18.70
2023-05-04T21:51:37.022Z,18.60
2023-05-04T21:54:06.542Z,18.60
2023-05-04T21:56:34.903Z,18.50
2023-05-04T21:59:06.905Z,18.50
2023-05-04T22:01:34.987Z,18.40
2023-05-04T22:04:05.656Z,18.40
2023-05-04T22:06:33.700Z,18.40
2023-05-04T22:09:01.906Z,18.30
2023-05-04T22:11:30.085Z,18.30
2023-05-04T22:13:58.122Z,18.30
2023-05-04T22:16:27.554Z,18.20
2023-05-04T22:18:55.586Z,18.10
2023-05-04T22:21:23.675Z,18.10
2023-05-04T22:23:51.829Z,18.00
2023-05-04T22:26:21.076Z,18.00
2023-05-04T22:28:49.208Z,18.00
2023-05-04T22:31:17.370Z,17.90
2023-05-04T22:33:46.770Z,17.90
2023-05-04T22:36:14.811Z,17.90
2023-05-04T22:38:43.145Z,17.80
2023-05-04T22:41:11.211Z,17.80
2023-05-04T22:43:39.209Z,17.80
2023-05-04T22:46:07.523Z,17.70
2023-05-04T22:48:35.544Z,17.60
2023-05-04T22:51:04.969Z,17.60
2023-05-04T22:53:32.940Z,17.60
2023-05-04T22:56:00.977Z,17.60
2023-05-04T22:58:29.013Z,17.50
2023-05-04T23:00:59.168Z,17.50
2023-05-04T23:03:27.262Z,17.40
2023-05-04T23:05:55.323Z,17.40
2023-05-04T23:08:26.289Z,17.30
2023-05-04T23:10:54.715Z,17.20
2023-05-04T23:13:23.027Z,17.20
2023-05-04T23:15:51.079Z,17.20
2023-05-04T23:18:19.191Z,17.10
2023-05-04T23:20:47.241Z,17.10
2023-05-04T23:23:15.301Z,17.00
2023-05-04T23:25:46.158Z,17.00
2023-05-04T23:28:14.214Z,16.90
2023-05-04T23:30:42.373Z,16.90
2023-05-04T23:33:10.442Z,16.90
2023-05-04T23:35:38.414Z,16.80
2023-05-04T23:38:06.534Z,16.80
2023-05-04T23:40:34.883Z,16.80
2023-05-04T23:43:06.326Z,16.80
2023-05-04T23:45:34.373Z,16.70
2023-05-04T23:48:08.649Z,16.70
2023-05-04T23:50:36.708Z,16.70
2023-05-04T23:53:04.999Z,16.70
2023-05-04T23:55:33.240Z,16.70
2023-05-04T23:58:01.385Z,16.60
